createdAt,value
2019-03-09T00:01:28.035Z,76.98
2019-03-09T00:03:59.682Z,77.45
2019-03-09T00:06:30.202Z,77.53
2019-03-09T00:09:00.739Z,77.67
2019-03-09T00:11:34.007Z,77.75
2019-03-09T00:14:04.721Z,77.13
2019-03-09T00:16:36.613Z,77.78
2019-03-09T00:19:07.633Z,78.18
2019-03-09T00:21:39.519Z,79.60
2019-03-09T00:24:17.365Z,80.73
2019-03-09T00:26:50.814Z,80.83
2019-03-09T00:29:22.726Z,80.31
2019-03-09T00:32:01.570Z,79.83
2019-03-09T00:34:33.047Z,79.19
2019-03-09T00:37:03.574Z,79.20
2019-03-09T00:39:34.117Z,79.28
2019-03-09T00:42:05.558Z,79.71
2019-03-09T00:44:37.017Z,80.27
2019-03-09T00:47:08.464Z,80.71
2019-03-09T00:49:39.917Z,80.83
2019-03-09T00:52:11.356Z,81.02
2019-03-09T00:54:41.892Z,80.92
2019-03-09T00:57:12.425Z,80.55
2019-03-09T00:59:42.969Z,80.00
2019-03-09T01:02:14.410Z,79.64
2019-03-09T01:04:44.952Z,79.38
2019-03-09T01:07:15.493Z,79.28
2019-03-09T01:09:46.934Z,79.30
2019-03-09T01:12:19.296Z,79.11
2019-03-09T01:14:51.250Z,79.11
2019-03-09T01:17:21.582Z,79.27
2019-03-09T01:19:53.052Z,79.57
2019-03-09T01:22:23.571Z,79.50
2019-03-09T01:24:54.111Z,79.39
2019-03-09T01:27:25.535Z,79.50
2019-03-09T01:29:55.807Z,79.96
2019-03-09T01:32:27.210Z,79.71
2019-03-09T01:34:59.604Z,79.77
2019-03-09T01:37:31.034Z,79.78
2019-03-09T01:40:02.588Z,80.39
2019-03-09T01:42:36.101Z,80.16
2019-03-09T01:45:09.829Z,80.03
2019-03-09T01:47:40.211Z,79.90
2019-03-09T01:50:10.485Z,80.07
2019-03-09T01:52:40.979Z,80.20
2019-03-09T01:55:13.832Z,80.30
2019-03-09T01:57:44.185Z,80.42
2019-03-09T02:00:16.366Z,80.46
2019-03-09T02:02:46.773Z,80.26
2019-03-09T02:05:19.163Z,80.31
2019-03-09T02:07:50.603Z,80.66
2019-03-09T02:10:22.070Z,80.39
2019-03-09T02:12:53.504Z,80.09
2019-03-09T02:15:24.971Z,80.33
2019-03-09T02:17:56.404Z,80.13
2019-03-09T02:20:27.872Z,80.06
2019-03-09T02:22:59.305Z,79.79
2019-03-09T02:25:30.779Z,79.78
2019-03-09T02:28:01.292Z,80.03
2019-03-09T02:30:34.004Z,79.91
2019-03-09T02:33:05.415Z,79.89
2019-03-09T02:35:37.812Z,79.79
2019-03-09T02:38:12.460Z,79.46
2019-03-09T02:40:42.867Z,79.54
2019-03-09T02:43:14.300Z,79.37
2019-03-09T02:45:44.572Z,79.37
2019-03-09T02:48:15.970Z,79.44
2019-03-09T02:50:56.609Z,79.44
2019-03-09T02:53:27.327Z,79.45
2019-03-09T02:55:57.712Z,79.60
2019-03-09T02:58:29.142Z,79.53
2019-03-09T03:01:05.330Z,79.79
2019-03-09T03:03:35.745Z,80.00
2019-03-09T03:06:06.290Z,79.97
2019-03-09T03:08:38.950Z,79.89
2019-03-09T03:11:10.409Z,79.83
2019-03-09T03:13:41.843Z,80.15
2019-03-09T03:16:13.680Z,80.08
2019-03-09T03:18:45.052Z,80.12
2019-03-09T03:21:15.360Z,80.15
2019-03-09T03:23:47.657Z,80.03
2019-03-09T03:26:19.123Z,79.96
2019-03-09T03:28:50.565Z,79.95
2019-03-09T03:31:22.024Z,79.75
2019-03-09T03:33:52.539Z,79.62
2019-03-09T03:36:23.084Z,79.44
2019-03-09T03:38:54.522Z,79.00
2019-03-09T03:41:25.995Z,79.40
2019-03-09T03:43:57.429Z,78.94
2019-03-09T03:46:28.894Z,79.07
2019-03-09T03:49:00.326Z,78.83
2019-03-09T03:51:30.873Z,78.42
2019-03-09T03:54:02.309Z,78.43
2019-03-09T03:56:33.773Z,78.24
2019-03-09T03:59:07.766Z,77.82
2019-03-09T04:01:38.219Z,77.58
2019-03-09T04:04:08.745Z,77.86
2019-03-09T04:06:39.274Z,77.61
2019-03-09T04:09:10.707Z,77.02
2019-03-09T04:11:41.250Z,77.20
2019-03-09T04:14:11.773Z,76.77
2019-03-09T04:16:42.313Z,76.50
2019-03-09T04:19:12.841Z,76.93
2019-03-09T04:21:43.371Z,76.76
2019-03-09T04:24:13.891Z,76.75
2019-03-09T04:26:44.434Z,76.54
2019-03-09T04:29:14.942Z,76.64
2019-03-09T04:31:46.407Z,76.25
2019-03-09T04:34:17.858Z,75.90
2019-03-09T04:36:50.935Z,75.99
2019-03-09T04:39:21.361Z,76.19
2019-03-09T04:41:54.961Z,75.82
2019-03-09T04:44:27.166Z,75.79
2019-03-09T04:46:59.110Z,75.37
2019-03-09T04:49:29.634Z,75.83
2019-03-09T04:52:00.166Z,75.37
2019-03-09T04:54:30.684Z,75.28
2019-03-09T04:57:01.230Z,75.49
2019-03-09T04:59:31.740Z,75.43
2019-03-09T05:02:02.289Z,75.62
2019-03-09T05:04:42.146Z,75.52
2019-03-09T05:07:15.563Z,76.12
2019-03-09T05:10:06.907Z,76.83
2019-03-09T05:12:37.342Z,77.74
2019-03-09T05:15:13.082Z,77.95
2019-03-09T05:17:45.710Z,78.38
2019-03-09T05:20:17.147Z,78.58
2019-03-09T05:22:48.614Z,79.33
2019-03-09T05:25:19.126Z,79.25
2019-03-09T05:27:49.669Z,79.80
2019-03-09T05:30:39.019Z,79.73
2019-03-09T05:33:09.480Z,79.87
2019-03-09T05:35:39.998Z,79.82
2019-03-09T05:38:10.540Z,79.97
2019-03-09T05:40:41.040Z,80.04
2019-03-09T05:43:11.589Z,79.77
2019-03-09T05:45:42.106Z,80.10
2019-03-09T05:48:12.644Z,80.11
2019-03-09T05:50:44.082Z,80.16
2019-03-09T05:53:17.531Z,79.93
2019-03-09T05:55:47.910Z,79.94
2019-03-09T05:58:18.451Z,79.48
2019-03-09T06:00:48.973Z,79.42
2019-03-09T06:03:20.443Z,79.43
2019-03-09T06:05:52.030Z,79.04
2019-03-09T06:08:22.415Z,78.82
2019-03-09T06:10:52.939Z,78.00
2019-03-09T06:13:23.478Z,77.91
2019-03-09T06:15:54.007Z,77.42
2019-03-09T06:18:24.553Z,76.36
2019-03-09T06:20:55.987Z,75.10
2019-03-09T06:23:26.548Z,74.88
2019-03-09T06:25:57.043Z,74.11
2019-03-09T06:28:27.580Z,73.56
2019-03-09T06:30:59.010Z,73.16
2019-03-09T06:33:30.895Z,71.89
2019-03-09T06:36:10.011Z,72.48
2019-03-09T06:38:58.417Z,72.25
2019-03-09T06:41:40.920Z,72.56
2019-03-09T06:44:11.314Z,72.67
2019-03-09T06:46:41.843Z,72.12
2019-03-09T06:49:13.311Z,72.10
2019-03-09T06:51:45.334Z,70.75
2019-03-09T06:54:16.812Z,71.21
2019-03-09T06:56:48.260Z,71.14
2019-03-09T06:59:19.705Z,71.77
2019-03-09T07:01:52.382Z,72.48
2019-03-09T07:04:22.949Z,72.15
2019-03-09T07:06:54.395Z,71.93
2019-03-09T07:09:25.856Z,71.60
2019-03-09T07:11:57.295Z,69.58
2019-03-09T07:14:52.187Z,67.35
2019-03-09T07:17:22.586Z,65.40
2019-03-09T07:19:54.088Z,62.68
2019-03-09T07:22:24.611Z,59.43
2019-03-09T07:24:56.049Z,59.47
2019-03-09T07:27:28.584Z,58.77
2019-03-09T07:29:58.960Z,58.64
2019-03-09T07:32:30.697Z,58.45
2019-03-09T07:35:02.214Z,53.68
2019-03-09T07:37:32.673Z,50.77
2019-03-09T07:40:03.984Z,52.83
2019-03-09T07:42:35.574Z,54.25
2019-03-09T07:45:09.194Z,54.61
2019-03-09T07:47:39.458Z,56.17
2019-03-09T07:50:12.963Z,56.54
2019-03-09T07:52:45.910Z,57.47
2019-03-09T07:55:34.071Z,58.41
2019-03-09T07:58:05.904Z,60.10
2019-03-09T08:00:36.354Z,60.37
2019-03-09T08:03:10.077Z,61.22
2019-03-09T08:05:42.296Z,61.51
2019-03-09T08:08:12.802Z,61.38
2019-03-09T08:10:50.289Z,61.12
2019-03-09T08:16:13.018Z,62.05
2019-03-09T08:18:45.384Z,62.66
2019-03-09T08:21:16.738Z,62.95
2019-03-09T08:23:49.890Z,63.24
2019-03-09T08:26:22.339Z,64.61
2019-03-09T08:28:53.996Z,65.02
2019-03-09T08:31:25.494Z,65.19
2019-03-09T08:33:55.904Z,66.11
2019-03-09T08:36:26.861Z,66.51
2019-03-09T08:38:58.618Z,67.09
2019-03-09T08:41:29.032Z,68.37
2019-03-09T08:44:02.149Z,68.56
2019-03-09T08:46:32.573Z,68.86
2019-03-09T08:49:03.076Z,68.70
2019-03-09T08:51:34.547Z,69.22
2019-03-09T08:54:05.063Z,70.90
2019-03-09T08:56:35.977Z,72.26
2019-03-09T08:59:07.960Z,72.10
2019-03-09T09:01:38.708Z,72.82
2019-03-09T09:04:27.551Z,73.21
2019-03-09T09:06:59.210Z,73.81
2019-03-09T09:09:30.989Z,74.24
2019-03-09T09:12:03.684Z,74.21
2019-03-09T09:14:35.115Z,73.83
2019-03-09T09:17:05.645Z,74.98
2019-03-09T09:19:35.869Z,75.81
2019-03-09T09:22:06.922Z,74.90
2019-03-09T09:24:38.464Z,75.03
2019-03-09T09:27:09.021Z,75.05
2019-03-09T09:29:40.279Z,75.79
2019-03-09T09:32:13.754Z,76.02
2019-03-09T09:34:44.550Z,76.15
2019-03-09T09:37:15.420Z,76.20
2019-03-09T09:39:46.444Z,76.79
2019-03-09T09:42:21.682Z,77.14
2019-03-09T09:44:53.193Z,77.11
2019-03-09T09:47:26.272Z,77.27
2019-03-09T09:50:00.664Z,78.00
2019-03-09T09:52:36.444Z,77.90
2019-03-09T09:55:11.184Z,78.65
2019-03-09T09:57:41.487Z,78.60
2019-03-09T10:00:26.300Z,78.14
2019-03-09T10:02:56.664Z,78.68
2019-03-09T10:05:29.072Z,78.43
2019-03-09T10:07:59.594Z,78.08
2019-03-09T10:10:30.135Z,77.92
2019-03-09T10:13:02.447Z,78.45
2019-03-09T10:15:34.493Z,78.62
2019-03-09T10:18:06.020Z,78.71
2019-03-09T10:20:37.988Z,78.51
2019-03-09T10:23:10.411Z,79.17
2019-03-09T10:25:41.951Z,78.79
2019-03-09T10:28:14.005Z,79.38
2019-03-09T10:30:44.441Z,79.46
2019-03-09T10:33:14.697Z,79.39
2019-03-09T10:35:46.124Z,79.35
2019-03-09T10:38:16.368Z,79.49
2019-03-09T10:40:48.245Z,79.29
2019-03-09T10:43:18.762Z,78.98
2019-03-09T10:45:50.235Z,78.93
2019-03-09T10:48:20.591Z,78.81
2019-03-09T10:50:50.861Z,78.35
2019-03-09T10:53:22.290Z,77.75
2019-03-09T10:55:53.870Z,76.97
2019-03-09T10:58:24.252Z,76.24
2019-03-09T11:00:54.527Z,74.69
2019-03-09T11:03:26.076Z,74.48
2019-03-09T11:05:56.483Z,74.67
2019-03-09T11:08:28.822Z,74.54
2019-03-09T11:10:59.389Z,74.44
2019-03-09T11:13:29.903Z,73.96
2019-03-09T11:16:00.568Z,73.61
2019-03-09T11:18:30.957Z,73.35
2019-03-09T11:21:01.512Z,73.79
2019-03-09T11:23:34.510Z,73.96
2019-03-09T11:26:05.045Z,74.19
2019-03-09T11:28:35.683Z,74.13
2019-03-09T11:31:06.109Z,73.96
2019-03-09T11:33:37.527Z,74.21
2019-03-09T11:36:09.621Z,74.04
2019-03-09T11:38:41.026Z,74.04
2019-03-09T11:41:18.787Z,73.53
2019-03-09T11:43:44.330Z,73.42
2019-03-09T11:46:14.884Z,73.08
2019-03-09T11:48:48.503Z,72.32
2019-03-09T11:51:19.136Z,71.97
2019-03-09T11:53:50.037Z,71.38
2019-03-09T11:56:21.599Z,70.09
2019-03-09T11:58:52.021Z,70.64
2019-03-09T12:01:23.269Z,69.84
2019-03-09T12:03:53.706Z,66.39
2019-03-09T12:06:25.185Z,65.33
2019-03-09T12:08:56.604Z,62.44
2019-03-09T12:11:27.756Z,60.66
2019-03-09T12:13:58.890Z,59.58
2019-03-09T12:16:29.447Z,57.60
2019-03-09T12:19:01.178Z,56.12
2019-03-09T12:21:33.775Z,56.10
2019-03-09T12:24:04.122Z,55.26
2019-03-09T12:26:34.461Z,55.43
2019-03-09T12:29:04.835Z,56.00
2019-03-09T12:31:36.354Z,55.37
2019-03-09T12:34:06.833Z,54.38
2019-03-09T12:36:37.378Z,53.36
2019-03-09T12:39:10.038Z,50.46
2019-03-09T12:41:42.444Z,51.37
2019-03-09T12:44:12.931Z,50.10
2019-03-09T12:46:43.480Z,49.46
2019-03-09T12:49:15.529Z,49.99
2019-03-09T12:51:46.224Z,50.33
2019-03-09T12:54:16.602Z,49.98
2019-03-09T12:56:46.907Z,49.05
2019-03-09T12:59:19.845Z,47.41
2019-03-09T13:01:57.859Z,47.35
2019-03-09T13:04:30.270Z,46.86
2019-03-09T13:07:02.143Z,47.25
2019-03-09T13:09:32.393Z,46.85
2019-03-09T13:12:03.833Z,46.12
2019-03-09T13:14:34.338Z,45.13
2019-03-09T13:17:06.200Z,43.70
2019-03-09T13:19:36.730Z,43.08
2019-03-09T13:22:08.456Z,44.13
2019-03-09T13:24:40.977Z,43.91
2019-03-09T13:27:11.925Z,45.15
2019-03-09T13:29:44.589Z,45.03
2019-03-09T13:32:15.144Z,44.27
2019-03-09T13:34:46.568Z,44.99
2019-03-09T13:37:16.846Z,44.35
2019-03-09T13:39:47.319Z,43.87
2019-03-09T13:42:17.866Z,45.47
2019-03-09T13:44:48.387Z,45.05
2019-03-09T13:47:19.856Z,44.97
2019-03-09T13:49:51.011Z,46.07
2019-03-09T13:52:21.765Z,45.47
2019-03-09T13:54:52.110Z,45.62
2019-03-09T13:57:22.663Z,44.98
2019-03-09T13:59:53.234Z,45.00
2019-03-09T14:02:23.682Z,43.62
2019-03-09T14:04:57.278Z,44.19
2019-03-09T14:07:27.874Z,44.19
2019-03-09T14:09:58.302Z,45.15
2019-03-09T14:12:31.954Z,45.58
2019-03-09T14:15:02.511Z,46.01
2019-03-09T14:17:32.995Z,46.40
2019-03-09T14:20:05.587Z,46.61
2019-03-09T14:22:36.489Z,46.60
2019-03-09T14:25:09.324Z,46.94
2019-03-09T14:27:41.219Z,46.48
2019-03-09T14:30:14.354Z,46.83
2019-03-09T14:32:47.518Z,47.92
2019-03-09T14:35:19.039Z,45.45
2019-03-09T14:37:51.035Z,46.37
2019-03-09T14:40:22.772Z,46.65
2019-03-09T14:42:54.244Z,46.91
2019-03-09T14:45:24.573Z,47.45
2019-03-09T14:47:54.997Z,47.85
2019-03-09T14:50:25.516Z,47.54
2019-03-09T14:52:56.974Z,48.04
2019-03-09T14:55:27.490Z,47.68
2019-03-09T14:57:58.948Z,48.23
2019-03-09T15:00:30.391Z,48.19
2019-03-09T15:03:00.936Z,48.48
2019-03-09T15:05:31.446Z,48.82
2019-03-09T15:08:02.927Z,49.03
2019-03-09T15:10:34.340Z,48.78
2019-03-09T15:13:06.427Z,48.91
2019-03-09T15:15:36.703Z,48.67
2019-03-09T15:18:08.701Z,49.02
2019-03-09T15:20:39.232Z,49.73
2019-03-09T15:23:09.787Z,49.70
2019-03-09T15:25:41.208Z,49.99
2019-03-09T15:28:14.023Z,49.77
2019-03-09T15:30:45.953Z,50.30
2019-03-09T15:33:17.498Z,50.53
2019-03-09T15:36:01.797Z,50.46
2019-03-09T15:38:37.443Z,50.14
2019-03-09T15:41:10.306Z,50.10
2019-03-09T15:43:40.985Z,50.21
2019-03-09T15:46:11.631Z,50.49
2019-03-09T15:48:42.125Z,50.62
2019-03-09T15:51:12.613Z,50.83
2019-03-09T15:53:44.093Z,51.27
2019-03-09T15:56:18.425Z,51.41
2019-03-09T15:58:48.822Z,51.41
2019-03-09T16:01:19.358Z,51.12
2019-03-09T16:03:50.948Z,51.06
2019-03-09T16:06:21.368Z,51.16
2019-03-09T16:08:51.905Z,51.75
2019-03-09T16:11:23.822Z,52.16
2019-03-09T16:13:55.124Z,51.85
2019-03-09T16:16:25.631Z,52.09
2019-03-09T16:18:57.745Z,52.36
2019-03-09T16:21:29.505Z,53.12
2019-03-09T16:24:00.127Z,53.12
2019-03-09T16:26:30.872Z,53.59
2019-03-09T16:29:04.030Z,53.70
2019-03-09T16:31:34.643Z,54.19
2019-03-09T16:34:06.778Z,54.74
2019-03-09T16:36:41.618Z,54.95
2019-03-09T16:39:15.330Z,55.51
2019-03-09T16:41:45.740Z,55.50
2019-03-09T16:44:17.541Z,56.09
2019-03-09T16:46:48.308Z,55.79
2019-03-09T16:49:20.422Z,55.75
2019-03-09T16:51:50.896Z,55.75
2019-03-09T16:54:25.157Z,56.21
2019-03-09T16:57:01.639Z,56.31
2019-03-09T16:59:37.571Z,55.89
2019-03-09T17:02:10.183Z,56.03
2019-03-09T17:04:43.344Z,55.89
2019-03-09T17:07:15.733Z,55.86
2019-03-09T17:09:46.195Z,55.99
2019-03-09T17:12:16.874Z,56.80
2019-03-09T17:14:50.591Z,60.09
2019-03-09T17:17:24.533Z,63.03
2019-03-09T17:19:55.223Z,66.02
2019-03-09T17:22:32.943Z,68.54
2019-03-09T17:25:00.321Z,68.46
2019-03-09T17:27:31.105Z,70.01
2019-03-09T17:30:02.609Z,72.54
2019-03-09T17:32:34.674Z,74.01
2019-03-09T17:35:08.421Z,74.99
2019-03-09T17:37:40.318Z,75.24
2019-03-09T17:40:14.029Z,75.07
2019-03-09T17:42:44.515Z,75.15
2019-03-09T17:45:34.207Z,75.02
2019-03-09T17:48:05.052Z,74.53
2019-03-09T17:50:35.624Z,74.22
2019-03-09T17:53:14.052Z,75.01
2019-03-09T17:55:48.923Z,76.40
2019-03-09T17:58:25.784Z,76.28
2019-03-09T18:00:59.291Z,75.27
2019-03-09T18:03:31.947Z,75.65
2019-03-09T18:06:02.367Z,75.70
2019-03-09T18:08:35.455Z,76.27
2019-03-09T18:11:09.532Z,77.27
2019-03-09T18:13:40.207Z,77.98
2019-03-09T18:16:12.602Z,78.81
2019-03-09T18:18:44.098Z,77.00
2019-03-09T18:21:15.123Z,76.32
2019-03-09T18:23:45.628Z,76.95
2019-03-09T18:26:16.015Z,78.00
2019-03-09T18:28:48.802Z,78.21
2019-03-09T18:31:19.250Z,78.38
2019-03-09T18:33:50.171Z,78.34
2019-03-09T18:36:20.539Z,78.61
2019-03-09T18:38:52.012Z,78.24
2019-03-09T18:41:24.122Z,78.00
2019-03-09T18:44:01.142Z,78.19
2019-03-09T18:46:33.841Z,76.98
2019-03-09T18:49:04.119Z,77.45
2019-03-09T18:51:34.464Z,77.28
2019-03-09T18:54:05.932Z,76.63
2019-03-09T18:56:37.378Z,78.24
2019-03-09T18:59:07.913Z,78.92
2019-03-09T19:01:38.423Z,79.16
2019-03-09T19:04:09.892Z,79.56
2019-03-09T19:06:41.328Z,78.76
2019-03-09T19:09:11.869Z,76.95
2019-03-09T19:11:42.384Z,76.84
2019-03-09T19:14:13.867Z,75.62
2019-03-09T19:16:44.385Z,75.65
2019-03-09T19:19:16.149Z,76.19
2019-03-09T19:21:46.675Z,77.14
2019-03-09T19:24:18.129Z,76.97
2019-03-09T19:26:48.383Z,77.76
2019-03-09T19:29:18.922Z,78.95
2019-03-09T19:31:49.261Z,78.50
2019-03-09T19:34:21.166Z,78.33
2019-03-09T19:36:51.427Z,78.13
2019-03-09T19:39:24.073Z,78.66
2019-03-09T19:41:55.496Z,79.39
2019-03-09T19:44:26.966Z,79.94
2019-03-09T19:47:00.959Z,80.51
2019-03-09T19:49:31.403Z,80.77
2019-03-09T19:52:07.743Z,81.11
2019-03-09T19:54:52.293Z,81.00
2019-03-09T19:57:29.317Z,81.08
2019-03-09T20:00:11.843Z,81.11
2019-03-09T20:02:42.124Z,81.50
2019-03-09T20:05:13.623Z,81.77
2019-03-09T20:07:44.122Z,82.11
2019-03-09T20:10:19.094Z,81.90
2019-03-09T20:12:49.468Z,82.43
2019-03-09T20:15:20.477Z,82.27
2019-03-09T20:17:52.602Z,82.45
2019-03-09T20:20:22.928Z,82.18
2019-03-09T20:22:54.371Z,82.30
2019-03-09T20:25:28.612Z,82.56
2019-03-09T20:28:00.339Z,82.36
2019-03-09T20:30:31.798Z,82.36
2019-03-09T20:33:02.594Z,82.11
2019-03-09T20:35:37.914Z,81.88
2019-03-09T20:38:08.297Z,81.12
2019-03-09T20:40:39.789Z,81.13
2019-03-09T20:43:13.132Z,80.91
2019-03-09T20:45:46.048Z,80.18
2019-03-09T20:48:16.548Z,80.73
2019-03-09T20:50:47.098Z,80.59
2019-03-09T20:53:18.485Z,80.69
2019-03-09T20:55:50.722Z,80.71
2019-03-09T20:58:26.373Z,80.50
2019-03-09T21:01:00.685Z,80.36
2019-03-09T21:03:34.349Z,80.72
2019-03-09T21:06:04.723Z,80.86
2019-03-09T21:08:36.157Z,80.54
2019-03-09T21:11:07.638Z,80.82
2019-03-09T21:13:38.190Z,80.72
2019-03-09T21:16:19.177Z,80.44
2019-03-09T21:18:52.721Z,80.54
2019-03-09T21:21:26.562Z,80.27
2019-03-09T21:23:58.688Z,80.82
2019-03-09T21:26:32.977Z,81.04
2019-03-09T21:29:05.071Z,81.03
2019-03-09T21:31:37.734Z,81.34
2019-03-09T21:34:08.555Z,82.08
2019-03-09T21:36:39.038Z,82.60
2019-03-09T21:39:09.544Z,83.20
2019-03-09T21:41:42.546Z,83.28
2019-03-09T21:44:13.994Z,83.66
2019-03-09T21:46:44.532Z,83.66
2019-03-09T21:49:17.600Z,83.79
2019-03-09T21:51:49.321Z,84.12
2019-03-09T21:54:19.803Z,84.49
2019-03-09T21:56:50.348Z,84.60
2019-03-09T21:59:21.232Z,84.99
2019-03-09T22:01:52.641Z,84.87
2019-03-09T22:04:23.144Z,84.57
2019-03-09T22:06:54.932Z,84.71
2019-03-09T22:09:25.377Z,84.60
2019-03-09T22:12:00.840Z,84.45
2019-03-09T22:14:32.744Z,83.99
2019-03-09T22:17:05.161Z,83.71
2019-03-09T22:19:37.995Z,83.54
2019-03-09T22:22:10.374Z,83.55
2019-03-09T22:24:41.815Z,83.74
2019-03-09T22:27:13.304Z,83.14
2019-03-09T22:29:45.014Z,83.46
2019-03-09T22:32:15.565Z,83.31
2019-03-09T22:34:46.991Z,83.37
2019-03-09T22:37:17.264Z,83.72
2019-03-09T22:39:48.665Z,83.68
2019-03-09T22:42:18.926Z,84.19
2019-03-09T22:44:50.350Z,84.50
2019-03-09T22:47:20.605Z,84.78
2019-03-09T22:49:52.023Z,84.91
2019-03-09T22:52:25.694Z,84.05
2019-03-09T22:54:58.941Z,83.14
2019-03-09T22:57:38.693Z,82.21
2019-03-09T23:00:17.587Z,82.99
2019-03-09T23:02:49.565Z,83.21
2019-03-09T23:05:20.998Z,83.47
2019-03-09T23:07:51.259Z,83.10
2019-03-09T23:10:27.654Z,83.74
2019-03-09T23:12:59.082Z,83.80
2019-03-09T23:15:31.102Z,83.42
2019-03-09T23:18:01.640Z,83.70
2019-03-09T23:20:32.786Z,84.08
2019-03-09T23:23:03.324Z,83.91
2019-03-09T23:25:34.757Z,83.46
2019-03-09T23:28:05.101Z,82.00
2019-03-09T23:30:35.516Z,81.44
2019-03-09T23:33:07.591Z,79.46
2019-03-09T23:35:39.037Z,79.05
2019-03-09T23:38:11.411Z,78.70
2019-03-09T23:40:42.845Z,77.33
2019-03-09T23:43:13.104Z,75.52
2019-03-09T23:45:43.605Z,75.21
2019-03-09T23:48:15.073Z,75.52
2019-03-09T23:50:45.321Z,75.59
2019-03-09T23:53:15.820Z,75.41
2019-03-09T23:55:47.257Z,74.69
2019-03-09T23:58:19.044Z,74.14
